Terminal Aerodrome Forecast
Issued by NWS Cleveland, OH

Home | Current Version | Previous Version | Graphics & Text | Print | Product List | Glossary On
Versions: 1 2 3 4 5 6 7 8 9 10 11 12 13 14 15 16 17 18 19 20
000
FTUS41 KCLE 261100 RRA
TAFCLE
TAF
KCLE 261142Z 2612/2718 19008KT P6SM BKN025 OVC050
     FM261700 20012G20KT P6SM BKN040 OVC250
     FM262300 18015G25KT 6SM -SHRA VCTS BKN040CB OVC080
     FM270200 19012G20KT P6SM BKN040 OVC200
     FM270800 20012KT 4SM BR SCT010 BKN200
     FM271300 20012KT P6SM SCT020 BKN200=

USA.gov is the U.S. government's official web portal to all federal, state and local government web resources and services.